sensor_id;sensor_type;location;lat;lon;timestamp;pressure;altitude;pressure_sealevel;temperature;humidity
31761;BME280;18335;51.486;7.562;2022-12-18T00:01:56;101439.72;;;-9.42;100.00
31761;BME280;18335;51.486;7.562;2022-12-18T00:04:25;101433.53;;;-9.39;100.00
31761;BME280;18335;51.486;7.562;2022-12-18T00:06:53;101438.88;;;-9.44;100.00
31761;BME280;18335;51.486;7.562;2022-12-18T00:09:20;101445.00;;;-9.39;100.00
31761;BME280;18335;51.486;7.562;2022-12-18T00:11:46;101444.00;;;-9.23;100.00
31761;BME280;18335;51.486;7.562;2022-12-18T00:14:15;101441.28;;;-9.18;100.00
31761;BME280;18335;51.486;7.562;2022-12-18T00:16:43;101436.09;;;-9.30;100.00
31761;BME280;18335;51.486;7.562;2022-12-18T00:19:11;101438.84;;;-9.42;100.00
31761;BME280;18335;51.486;7.562;2022-12-18T00:21:39;101439.72;;;-9.40;100.00
31761;BME280;18335;51.486;7.562;2022-12-18T00:24:06;101446.81;;;-9.48;100.00
31761;BME280;18335;51.486;7.562;2022-12-18T00:26:34;101452.94;;;-9.43;100.00
31761;BME280;18335;51.486;7.562;2022-12-18T00:29:05;101439.69;;;-9.37;100.00
31761;BME280;18335;51.486;7.562;2022-12-18T00:31:34;101446.75;;;-9.39;100.00
31761;BME280;18335;51.486;7.562;2022-12-18T00:34:01;101445.84;;;-9.37;100.00
31761;BME280;18335;51.486;7.562;2022-12-18T00:36:30;101445.81;;;-9.34;100.00
31761;BME280;18335;51.486;7.562;2022-12-18T00:38:58;101445.72;;;-9.22;100.00
31761;BME280;18335;51.486;7.562;2022-12-18T00:41:26;101459.03;;;-9.29;100.00
31761;BME280;18335;51.486;7.562;2022-12-18T00:44:13;101448.47;;;-9.32;100.00
31761;BME280;18335;51.486;7.562;2022-12-18T00:46:42;101455.41;;;-9.22;100.00
31761;BME280;18335;51.486;7.562;2022-12-18T00:49:09;101464.22;;;-9.20;100.00
31761;BME280;18335;51.486;7.562;2022-12-18T00:51:36;101464.97;;;-9.08;100.00
31761;BME280;18335;51.486;7.562;2022-12-18T00:54:02;101455.28;;;-9.07;100.00
31761;BME280;18335;51.486;7.562;2022-12-18T00:56:30;101456.19;;;-9.10;100.00
31761;BME280;18335;51.486;7.562;2022-12-18T00:58:56;101459.66;;;-9.05;100.00
31761;BME280;18335;51.486;7.562;2022-12-18T01:01:23;101458.06;;;-9.21;100.00
31761;BME280;18335;51.486;7.562;2022-12-18T01:03:51;101465.19;;;-9.29;100.00
31761;BME280;18335;51.486;7.562;2022-12-18T01:06:19;101469.63;;;-9.37;100.00
31761;BME280;18335;51.486;7.562;2022-12-18T01:08:46;101460.72;;;-9.25;100.00
31761;BME280;18335;51.486;7.562;2022-12-18T01:11:15;101456.41;;;-9.34;100.00
31761;BME280;18335;51.486;7.562;2022-12-18T01:13:43;101453.69;;;-9.28;100.00
31761;BME280;18335;51.486;7.562;2022-12-18T01:16:11;101456.53;;;-9.52;100.00
31761;BME280;18335;51.486;7.562;2022-12-18T01:18:38;101454.63;;;-9.32;100.00
31761;BME280;18335;51.486;7.562;2022-12-18T01:21:08;101462.63;;;-9.41;100.00
31761;BME280;18335;51.486;7.562;2022-12-18T01:23:36;101466.09;;;-9.36;100.00
31761;BME280;18335;51.486;7.562;2022-12-18T01:26:05;101463.47;;;-9.36;100.00
31761;BME280;18335;51.486;7.562;2022-12-18T01:28:34;101463.53;;;-9.45;100.00
31761;BME280;18335;51.486;7.562;2022-12-18T01:31:12;101455.41;;;-9.22;100.00
31761;BME280;18335;51.486;7.562;2022-12-18T01:33:39;101459.03;;;-9.32;100.00
31761;BME280;18335;51.486;7.562;2022-12-18T01:36:07;101464.28;;;-9.26;100.00
31761;BME280;18335;51.486;7.562;2022-12-18T01:38:34;101460.75;;;-9.28;100.00
31761;BME280;18335;51.486;7.562;2022-12-18T01:41:01;101463.44;;;-9.33;100.00
31761;BME280;18335;51.486;7.562;2022-12-18T01:43:48;101472.25;;;-9.34;100.00
31761;BME280;18335;51.486;7.562;2022-12-18T01:46:16;101465.22;;;-9.35;100.00
31761;BME280;18335;51.486;7.562;2022-12-18T01:48:44;101468.72;;;-9.33;100.00
31761;BME280;18335;51.486;7.562;2022-12-18T01:51:15;101449.41;;;-9.38;100.00
31761;BME280;18335;51.486;7.562;2022-12-18T01:53:42;101441.34;;;-9.23;100.00
31761;BME280;18335;51.486;7.562;2022-12-18T01:56:13;101432.66;;;-9.40;100.00
31761;BME280;18335;51.486;7.562;2022-12-18T01:58:48;101446.81;;;-9.45;100.00
31761;BME280;18335;51.486;7.562;2022-12-18T02:01:15;101433.50;;;-9.33;100.00
31761;BME280;18335;51.486;7.562;2022-12-18T02:03:43;101437.91;;;-9.32;100.00
31761;BME280;18335;51.486;7.562;2022-12-18T02:06:15;101445.03;;;-9.46;100.00
31761;BME280;18335;51.486;7.562;2022-12-18T02:08:52;101445.03;;;-9.45;100.00
31761;BME280;18335;51.486;7.562;2022-12-18T02:11:28;101441.47;;;-9.39;100.00
31761;BME280;18335;51.486;7.562;2022-12-18T02:14:10;101433.50;;;-9.32;100.00
31761;BME280;18335;51.486;7.562;2022-12-18T02:16:43;101440.50;;;-9.28;100.00
31761;BME280;18335;51.486;7.562;2022-12-18T02:19:27;101438.69;;;-9.24;100.00
31761;BME280;18335;51.486;7.562;2022-12-18T02:22:19;101430.78;;;-9.24;100.00
31761;BME280;18335;51.486;7.562;2022-12-18T02:24:57;101427.97;;;-9.06;100.00
31761;BME280;18335;51.486;7.562;2022-12-18T02:27:29;101432.47;;;-9.19;100.00
31761;BME280;18335;51.486;7.562;2022-12-18T02:29:59;101431.53;;;-9.10;100.00
31761;BME280;18335;51.486;7.562;2022-12-18T02:32:31;101426.25;;;-9.09;100.00
31761;BME280;18335;51.486;7.562;2022-12-18T02:35:02;101419.88;;;-8.91;100.00
31761;BME280;18335;51.486;7.562;2022-12-18T02:37:32;101424.25;;;-8.88;100.00
31761;BME280;18335;51.486;7.562;2022-12-18T02:40:03;101421.44;;;-8.72;100.00
31761;BME280;18335;51.486;7.562;2022-12-18T02:42:34;101416.13;;;-8.70;100.00
31761;BME280;18335;51.486;7.562;2022-12-18T02:45:03;101418.88;;;-8.81;100.00
31761;BME280;18335;51.486;7.562;2022-12-18T02:47:33;101423.16;;;-8.68;100.00
31761;BME280;18335;51.486;7.562;2022-12-18T02:50:08;101418.41;;;-8.37;100.00
31761;BME280;18335;51.486;7.562;2022-12-18T02:52:47;101417.53;;;-8.39;100.00
31761;BME280;18335;51.486;7.562;2022-12-18T02:55:26;101425.56;;;-8.48;100.00
31761;BME280;18335;51.486;7.562;2022-12-18T02:58:05;101429.97;;;-8.47;100.00
31761;BME280;18335;51.486;7.562;2022-12-18T03:00:41;101421.22;;;-8.52;100.00
31761;BME280;18335;51.486;7.562;2022-12-18T03:03:14;101417.59;;;-8.44;100.00
31761;BME280;18335;51.486;7.562;2022-12-18T03:05:47;101416.28;;;-8.14;100.00
31761;BME280;18335;51.486;7.562;2022-12-18T03:08:19;101416.88;;;-7.92;100.00
31761;BME280;18335;51.486;7.562;2022-12-18T03:10:53;101424.66;;;-7.81;100.00
31761;BME280;18335;51.486;7.562;2022-12-18T03:13:27;101422.94;;;-7.84;100.00
31761;BME280;18335;51.486;7.562;2022-12-18T03:15:56;101398.69;;;-7.57;100.00
31761;BME280;18335;51.486;7.562;2022-12-18T03:18:29;101402.03;;;-7.46;100.00
31761;BME280;18335;51.486;7.562;2022-12-18T03:20:59;101394.56;;;-7.22;100.00
31761;BME280;18335;51.486;7.562;2022-12-18T03:23:32;101389.75;;;-7.01;100.00
31761;BME280;18335;51.486;7.562;2022-12-18T03:26:05;101398.56;;;-6.99;100.00
31761;BME280;18335;51.486;7.562;2022-12-18T03:28:38;101399.84;;;-6.74;100.00
31761;BME280;18335;51.486;7.562;2022-12-18T03:31:09;101397.59;;;-6.49;100.00
31761;BME280;18335;51.486;7.562;2022-12-18T03:33:40;101396.91;;;-6.58;100.00
31761;BME280;18335;51.486;7.562;2022-12-18T03:36:08;101394.97;;;-6.49;100.00
31761;BME280;18335;51.486;7.562;2022-12-18T03:38:35;101396.75;;;-6.51;100.00
31761;BME280;18335;51.486;7.562;2022-12-18T03:41:09;101394.66;;;-6.34;100.00
31761;BME280;18335;51.486;7.562;2022-12-18T03:44:03;101395.16;;;-6.17;100.00
31761;BME280;18335;51.486;7.562;2022-12-18T03:46:41;101389.84;;;-6.17;100.00
31761;BME280;18335;51.486;7.562;2022-12-18T03:49:13;101378.34;;;-6.17;100.00
31761;BME280;18335;51.486;7.562;2022-12-18T03:51:49;101384.66;;;-6.23;100.00
31761;BME280;18335;51.486;7.562;2022-12-18T03:54:17;101383.09;;;-5.91;100.00
31761;BME280;18335;51.486;7.562;2022-12-18T03:56:59;101385.78;;;-5.93;100.00
31761;BME280;18335;51.486;7.562;2022-12-18T03:59:30;101395.72;;;-6.01;100.00
31761;BME280;18335;51.486;7.562;2022-12-18T04:01:59;101396.66;;;-6.05;100.00
31761;BME280;18335;51.486;7.562;2022-12-18T04:04:28;101403.88;;;-6.10;100.00
31761;BME280;18335;51.486;7.562;2022-12-18T04:06:59;101406.59;;;-6.13;100.00
31761;BME280;18335;51.486;7.562;2022-12-18T04:09:27;101407.94;;;-5.94;100.00
31761;BME280;18335;51.486;7.562;2022-12-18T04:11:54;101397.41;;;-5.98;100.00
31761;BME280;18335;51.486;7.562;2022-12-18T04:14:22;101394.78;;;-6.00;100.00
31761;BME280;18335;51.486;7.562;2022-12-18T04:16:53;101393.44;;;-5.81;100.00
31761;BME280;18335;51.486;7.562;2022-12-18T04:19:26;101394.56;;;-5.91;100.00
31761;BME280;18335;51.486;7.562;2022-12-18T04:21:53;101388.13;;;-5.82;100.00
31761;BME280;18335;51.486;7.562;2022-12-18T04:24:20;101389.47;;;-5.63;100.00
31761;BME280;18335;51.486;7.562;2022-12-18T04:27:03;101384.75;;;-5.50;100.00
31761;BME280;18335;51.486;7.562;2022-12-18T04:29:34;101376.16;;;-5.26;100.00
31761;BME280;18335;51.486;7.562;2022-12-18T04:32:02;101387.19;;;-5.08;100.00
31761;BME280;18335;51.486;7.562;2022-12-18T04:34:31;101377.78;;;-5.21;100.00
31761;BME280;18335;51.486;7.562;2022-12-18T04:36:58;101381.78;;;-5.05;100.00
31761;BME280;18335;51.486;7.562;2022-12-18T04:39:25;101385.41;;;-5.07;100.00
31761;BME280;18335;51.486;7.562;2022-12-18T04:41:54;101380.94;;;-5.05;100.00
31761;BME280;18335;51.486;7.562;2022-12-18T04:44:21;101385.16;;;-4.98;100.00
31761;BME280;18335;51.486;7.562;2022-12-18T04:46:48;101384.25;;;-4.97;100.00
31761;BME280;18335;51.486;7.562;2022-12-18T04:49:16;101387.75;;;-4.95;100.00
31761;BME280;18335;51.486;7.562;2022-12-18T04:51:42;101392.41;;;-5.03;100.00
31761;BME280;18335;51.486;7.562;2022-12-18T04:54:09;101389.84;;;-4.74;100.00
31761;BME280;18335;51.486;7.562;2022-12-18T04:56:36;101392.22;;;-4.63;100.00
31761;BME280;18335;51.486;7.562;2022-12-18T04:59:03;101384.78;;;-4.52;100.00
31761;BME280;18335;51.486;7.562;2022-12-18T05:01:30;101383.97;;;-4.54;100.00
31761;BME280;18335;51.486;7.562;2022-12-18T05:03:59;101392.56;;;-4.44;100.00
31761;BME280;18335;51.486;7.562;2022-12-18T05:06:27;101382.34;;;-4.60;100.00
31761;BME280;18335;51.486;7.562;2022-12-18T05:08:53;101384.25;;;-4.65;100.00
31761;BME280;18335;51.486;7.562;2022-12-18T05:11:20;101378.09;;;-4.67;100.00
31761;BME280;18335;51.486;7.562;2022-12-18T05:13:47;101377.50;;;-4.45;100.00
31761;BME280;18335;51.486;7.562;2022-12-18T05:16:14;101374.94;;;-4.49;100.00
31761;BME280;18335;51.486;7.562;2022-12-18T05:18:41;101367.69;;;-4.43;100.00
31761;BME280;18335;51.486;7.562;2022-12-18T05:21:08;101364.66;;;-4.31;100.00
31761;BME280;18335;51.486;7.562;2022-12-18T05:23:36;101368.13;;;-4.28;100.00
31761;BME280;18335;51.486;7.562;2022-12-18T05:26:05;101361.22;;;-4.35;100.00
31761;BME280;18335;51.486;7.562;2022-12-18T05:28:33;101361.53;;;-4.16;100.00
31761;BME280;18335;51.486;7.562;2022-12-18T05:31:01;101363.31;;;-4.15;100.00
31761;BME280;18335;51.486;7.562;2022-12-18T05:33:30;101361.47;;;-4.15;100.00
31761;BME280;18335;51.486;7.562;2022-12-18T05:35:59;101357.72;;;-4.08;100.00
31761;BME280;18335;51.486;7.562;2022-12-18T05:38:26;101359.75;;;-4.16;100.00
31761;BME280;18335;51.486;7.562;2022-12-18T05:40:56;101358.19;;;-4.23;100.00
31761;BME280;18335;51.486;7.562;2022-12-18T05:43:23;101363.59;;;-4.26;100.00
31761;BME280;18335;51.486;7.562;2022-12-18T05:45:51;101363.75;;;-4.30;100.00
31761;BME280;18335;51.486;7.562;2022-12-18T05:48:18;101352.41;;;-4.37;100.00
31761;BME280;18335;51.486;7.562;2022-12-18T05:50:46;101356.78;;;-4.36;100.00
31761;BME280;18335;51.486;7.562;2022-12-18T05:53:14;101365.56;;;-4.32;100.00
31761;BME280;18335;51.486;7.562;2022-12-18T05:55:42;101365.81;;;-4.40;100.00
31761;BME280;18335;51.486;7.562;2022-12-18T05:58:11;101377.25;;;-4.36;100.00
31761;BME280;18335;51.486;7.562;2022-12-18T06:00:41;101383.47;;;-4.37;100.00
31761;BME280;18335;51.486;7.562;2022-12-18T06:03:09;101392.38;;;-4.38;100.00
31761;BME280;18335;51.486;7.562;2022-12-18T06:05:38;101387.56;;;-4.24;100.00
31761;BME280;18335;51.486;7.562;2022-12-18T06:08:05;101389.44;;;-4.28;100.00
31761;BME280;18335;51.486;7.562;2022-12-18T06:10:32;101393.59;;;-4.19;100.00
31761;BME280;18335;51.486;7.562;2022-12-18T06:12:58;101389.97;;;-4.17;100.00
31761;BME280;18335;51.486;7.562;2022-12-18T06:15:27;101397.19;;;-4.20;100.00
31761;BME280;18335;51.486;7.562;2022-12-18T06:17:53;101391.03;;;-4.22;100.00
31761;BME280;18335;51.486;7.562;2022-12-18T06:20:20;101389.78;;;-4.09;100.00
31761;BME280;18335;51.486;7.562;2022-12-18T06:22:47;101397.75;;;-4.09;100.00
31761;BME280;18335;51.486;7.562;2022-12-18T06:25:14;101400.69;;;-4.18;100.00
31761;BME280;18335;51.486;7.562;2022-12-18T06:27:41;101405.28;;;-3.94;100.00
31761;BME280;18335;51.486;7.562;2022-12-18T06:30:09;101412.16;;;-3.85;100.00
31761;BME280;18335;51.486;7.562;2022-12-18T06:32:37;101415.66;;;-3.85;100.00
31761;BME280;18335;51.486;7.562;2022-12-18T06:35:05;101413.94;;;-3.86;100.00
31761;BME280;18335;51.486;7.562;2022-12-18T06:37:31;101422.75;;;-3.84;100.00
31761;BME280;18335;51.486;7.562;2022-12-18T06:39:58;101411.28;;;-3.86;100.00
31761;BME280;18335;51.486;7.562;2022-12-18T06:42:26;101405.69;;;-3.78;100.00
31761;BME280;18335;51.486;7.562;2022-12-18T06:44:53;101409.75;;;-3.67;100.00
31761;BME280;18335;51.486;7.562;2022-12-18T06:47:19;101413.56;;;-3.74;100.00
31761;BME280;18335;51.486;7.562;2022-12-18T06:49:48;101406.38;;;-3.72;100.00
31761;BME280;18335;51.486;7.562;2022-12-18T06:52:14;101405.31;;;-3.66;100.00
31761;BME280;18335;51.486;7.562;2022-12-18T06:54:41;101401.38;;;-3.55;100.00
31761;BME280;18335;51.486;7.562;2022-12-18T06:57:08;101403.63;;;-3.69;100.00
31761;BME280;18335;51.486;7.562;2022-12-18T06:59:34;101399.00;;;-3.64;100.00
31761;BME280;18335;51.486;7.562;2022-12-18T07:02:01;101396.53;;;-3.70;100.00
31761;BME280;18335;51.486;7.562;2022-12-18T07:04:28;101394.81;;;-3.71;100.00
31761;BME280;18335;51.486;7.562;2022-12-18T07:06:56;101388.72;;;-3.76;100.00
31761;BME280;18335;51.486;7.562;2022-12-18T07:09:23;101383.38;;;-3.76;100.00
31761;BME280;18335;51.486;7.562;2022-12-18T07:11:50;101389.47;;;-3.71;100.00
31761;BME280;18335;51.486;7.562;2022-12-18T07:14:16;101386.53;;;-3.63;100.00
31761;BME280;18335;51.486;7.562;2022-12-18T07:16:43;101387.63;;;-3.69;100.00
31761;BME280;18335;51.486;7.562;2022-12-18T07:19:10;101386.94;;;-3.75;100.00
31761;BME280;18335;51.486;7.562;2022-12-18T07:21:37;101387.69;;;-3.70;100.00
31761;BME280;18335;51.486;7.562;2022-12-18T07:24:06;101391.16;;;-3.68;100.00
31761;BME280;18335;51.486;7.562;2022-12-18T07:26:32;101383.16;;;-3.68;100.00
31761;BME280;18335;51.486;7.562;2022-12-18T07:28:59;101381.28;;;-3.65;100.00
31761;BME280;18335;51.486;7.562;2022-12-18T07:31:26;101390.00;;;-3.60;100.00
31761;BME280;18335;51.486;7.562;2022-12-18T07:33:53;101380.97;;;-3.56;100.00
31761;BME280;18335;51.486;7.562;2022-12-18T07:36:20;101380.69;;;-3.47;100.00
31761;BME280;18335;51.486;7.562;2022-12-18T07:38:48;101366.31;;;-3.43;100.00
31761;BME280;18335;51.486;7.562;2022-12-18T07:41:18;101366.31;;;-3.43;100.00
31761;BME280;18335;51.486;7.562;2022-12-18T07:43:45;101377.75;;;-3.39;100.00
31761;BME280;18335;51.486;7.562;2022-12-18T07:46:13;101373.13;;;-3.34;100.00
31761;BME280;18335;51.486;7.562;2022-12-18T07:48:40;101368.13;;;-3.17;100.00
31761;BME280;18335;51.486;7.562;2022-12-18T07:51:07;101363.28;;;-3.06;100.00
31761;BME280;18335;51.486;7.562;2022-12-18T07:53:35;101360.50;;;-3.03;100.00
31761;BME280;18335;51.486;7.562;2022-12-18T07:56:04;101369.50;;;-3.05;100.00
31761;BME280;18335;51.486;7.562;2022-12-18T07:58:33;101368.41;;;-3.00;100.00
31761;BME280;18335;51.486;7.562;2022-12-18T08:01:04;101375.63;;;-3.02;100.00
31761;BME280;18335;51.486;7.562;2022-12-18T08:03:31;101368.13;;;-2.92;100.00
31761;BME280;18335;51.486;7.562;2022-12-18T08:05:59;101379.38;;;-2.83;100.00
31761;BME280;18335;51.486;7.562;2022-12-18T08:08:27;101377.97;;;-2.68;100.00
31761;BME280;18335;51.486;7.562;2022-12-18T08:10:53;101368.25;;;-2.70;100.00
31761;BME280;18335;51.486;7.562;2022-12-18T08:13:20;101369.03;;;-2.67;100.00
31761;BME280;18335;51.486;7.562;2022-12-18T08:15:56;101364.22;;;-2.57;100.00
31761;BME280;18335;51.486;7.562;2022-12-18T08:18:23;101352.78;;;-2.61;100.00
31761;BME280;18335;51.486;7.562;2022-12-18T08:20:49;101344.53;;;-2.55;100.00
31761;BME280;18335;51.486;7.562;2022-12-18T08:23:16;101343.69;;;-2.57;100.00
31761;BME280;18335;51.486;7.562;2022-12-18T08:25:43;101348.31;;;-2.60;100.00
31761;BME280;18335;51.486;7.562;2022-12-18T08:28:10;101337.63;;;-2.60;100.00
31761;BME280;18335;51.486;7.562;2022-12-18T08:30:37;101335.94;;;-2.63;100.00
31761;BME280;18335;51.486;7.562;2022-12-18T08:33:05;101328.31;;;-2.50;100.00
31761;BME280;18335;51.486;7.562;2022-12-18T08:35:34;101325.28;;;-2.40;100.00
31761;BME280;18335;51.486;7.562;2022-12-18T08:38:01;101322.63;;;-2.41;100.00
31761;BME280;18335;51.486;7.562;2022-12-18T08:40:28;101322.38;;;-2.34;100.00
31761;BME280;18335;51.486;7.562;2022-12-18T08:42:55;101299.75;;;-2.25;100.00
31761;BME280;18335;51.486;7.562;2022-12-18T08:45:39;101288.25;;;-2.27;100.00
31761;BME280;18335;51.486;7.562;2022-12-18T08:48:07;101291.19;;;-2.11;100.00
31761;BME280;18335;51.486;7.562;2022-12-18T08:50:34;101294.34;;;-2.00;100.00
31761;BME280;18335;51.486;7.562;2022-12-18T08:53:01;101292.75;;;-1.84;100.00
31761;BME280;18335;51.486;7.562;2022-12-18T08:55:27;101286.91;;;-1.72;100.00
31761;BME280;18335;51.486;7.562;2022-12-18T08:57:54;101285.63;;;-1.62;100.00
31761;BME280;18335;51.486;7.562;2022-12-18T09:00:21;101287.34;;;-1.61;100.00
31761;BME280;18335;51.486;7.562;2022-12-18T09:02:48;101285.38;;;-1.56;100.00
31761;BME280;18335;51.486;7.562;2022-12-18T09:05:16;101289.50;;;-1.49;100.00
31761;BME280;18335;51.486;7.562;2022-12-18T09:07:42;101291.19;;;-1.46;100.00
31761;BME280;18335;51.486;7.562;2022-12-18T09:10:09;101303.38;;;-1.39;100.00
31761;BME280;18335;51.486;7.562;2022-12-18T09:12:36;101301.44;;;-1.36;100.00
31761;BME280;18335;51.486;7.562;2022-12-18T09:15:03;101301.44;;;-1.36;100.00
31761;BME280;18335;51.486;7.562;2022-12-18T09:17:30;101297.16;;;-1.40;100.00
31761;BME280;18335;51.486;7.562;2022-12-18T09:19:57;101302.94;;;-1.29;100.00
31761;BME280;18335;51.486;7.562;2022-12-18T09:22:25;101297.34;;;-1.23;100.00
31761;BME280;18335;51.486;7.562;2022-12-18T09:24:52;101297.19;;;-1.20;100.00
31761;BME280;18335;51.486;7.562;2022-12-18T09:27:19;101287.75;;;-1.08;100.00
31761;BME280;18335;51.486;7.562;2022-12-18T09:29:46;101281.59;;;-1.10;100.00
31761;BME280;18335;51.486;7.562;2022-12-18T09:32:12;101285.00;;;-1.06;100.00
31761;BME280;18335;51.486;7.562;2022-12-18T09:34:39;101284.25;;;-1.10;100.00
31761;BME280;18335;51.486;7.562;2022-12-18T09:37:06;101278.72;;;-1.05;100.00
31761;BME280;18335;51.486;7.562;2022-12-18T09:39:34;101282.59;;;-1.13;100.00
31761;BME280;18335;51.486;7.562;2022-12-18T09:42:02;101281.13;;;-1.20;100.00
31761;BME280;18335;51.486;7.562;2022-12-18T09:44:32;101268.88;;;-1.05;100.00
31761;BME280;18335;51.486;7.562;2022-12-18T09:47:08;101268.91;;;-0.86;100.00
31761;BME280;18335;51.486;7.562;2022-12-18T09:49:41;101270.66;;;-0.85;100.00
31761;BME280;18335;51.486;7.562;2022-12-18T09:52:12;101268.91;;;-0.86;100.00
31761;BME280;18335;51.486;7.562;2022-12-18T09:54:43;101255.72;;;-0.71;100.00
31761;BME280;18335;51.486;7.562;2022-12-18T09:57:15;101261.19;;;-0.74;100.00
31761;BME280;18335;51.486;7.562;2022-12-18T09:59:46;101256.22;;;-0.63;100.00
31761;BME280;18335;51.486;7.562;2022-12-18T10:02:17;101259.34;;;-0.53;100.00
31761;BME280;18335;51.486;7.562;2022-12-18T10:04:49;101266.81;;;-0.41;100.00
31761;BME280;18335;51.486;7.562;2022-12-18T10:07:19;101268.44;;;-0.37;100.00
31761;BME280;18335;51.486;7.562;2022-12-18T10:09:55;101256.53;;;-0.31;100.00
31761;BME280;18335;51.486;7.562;2022-12-18T10:12:30;101262.56;;;-0.26;100.00
31761;BME280;18335;51.486;7.562;2022-12-18T10:15:05;101259.16;;;-0.11;100.00
31761;BME280;18335;51.486;7.562;2022-12-18T10:17:37;101257.97;;;-0.06;100.00
31761;BME280;18335;51.486;7.562;2022-12-18T10:20:13;101244.34;;;-0.01;100.00
31761;BME280;18335;51.486;7.562;2022-12-18T10:22:48;101228.69;;;0.09;100.00
31761;BME280;18335;51.486;7.562;2022-12-18T10:25:22;101231.41;;;0.26;100.00
31761;BME280;18335;51.486;7.562;2022-12-18T10:27:52;101220.91;;;0.38;100.00
31761;BME280;18335;51.486;7.562;2022-12-18T10:30:22;101220.91;;;0.38;100.00
31761;BME280;18335;51.486;7.562;2022-12-18T10:32:49;101222.28;;;0.47;100.00
31761;BME280;18335;51.486;7.562;2022-12-18T10:35:19;101232.50;;;0.39;100.00
31761;BME280;18335;51.486;7.562;2022-12-18T10:38:00;101230.16;;;0.50;100.00
31761;BME280;18335;51.486;7.562;2022-12-18T10:40:28;101219.13;;;0.56;100.00
31761;BME280;18335;51.486;7.562;2022-12-18T10:43:03;101205.22;;;0.65;100.00
31761;BME280;18335;51.486;7.562;2022-12-18T10:45:30;101203.94;;;0.55;100.00
31761;BME280;18335;51.486;7.562;2022-12-18T10:47:57;101190.19;;;0.61;100.00
31761;BME280;18335;51.486;7.562;2022-12-18T10:50:28;101179.13;;;0.67;100.00
31761;BME280;18335;51.486;7.562;2022-12-18T10:52:58;101176.25;;;0.87;100.00
31761;BME280;18335;51.486;7.562;2022-12-18T10:55:30;101169.16;;;0.86;100.00
31761;BME280;18335;51.486;7.562;2022-12-18T10:58:13;101169.00;;;0.89;100.00
31761;BME280;18335;51.486;7.562;2022-12-18T11:00:41;101178.28;;;0.99;100.00
31761;BME280;18335;51.486;7.562;2022-12-18T11:03:29;101166.44;;;1.03;100.00
31761;BME280;18335;51.486;7.562;2022-12-18T11:06:03;101165.78;;;1.16;100.00
31761;BME280;18335;51.486;7.562;2022-12-18T11:08:30;101162.41;;;1.28;100.00
31761;BME280;18335;51.486;7.562;2022-12-18T11:10:58;101169.69;;;1.26;100.00
31761;BME280;18335;51.486;7.562;2022-12-18T11:13:27;101164.78;;;1.34;100.00
31761;BME280;18335;51.486;7.562;2022-12-18T11:15:54;101159.91;;;1.25;100.00
31761;BME280;18335;51.486;7.562;2022-12-18T11:18:25;101161.91;;;1.37;100.00
31761;BME280;18335;51.486;7.562;2022-12-18T11:20:54;101150.00;;;1.41;100.00
31761;BME280;18335;51.486;7.562;2022-12-18T11:23:23;101156.78;;;1.48;100.00
31761;BME280;18335;51.486;7.562;2022-12-18T11:25:56;101145.59;;;1.55;100.00
31761;BME280;18335;51.486;7.562;2022-12-18T11:28:34;101149.44;;;1.51;100.00
31761;BME280;18335;51.486;7.562;2022-12-18T11:31:19;101142.84;;;1.57;100.00
31761;BME280;18335;51.486;7.562;2022-12-18T11:33:51;101139.00;;;1.77;100.00
31761;BME280;18335;51.486;7.562;2022-12-18T11:36:21;101136.66;;;1.86;100.00
31761;BME280;18335;51.486;7.562;2022-12-18T11:38:49;101136.66;;;1.86;100.00
31761;BME280;18335;51.486;7.562;2022-12-18T11:41:21;101125.16;;;1.98;100.00
31761;BME280;18335;51.486;7.562;2022-12-18T11:44:19;101130.59;;;2.12;100.00
31761;BME280;18335;51.486;7.562;2022-12-18T11:46:53;101130.88;;;2.08;100.00
31761;BME280;18335;51.486;7.562;2022-12-18T11:49:25;101125.94;;;2.00;100.00
31761;BME280;18335;51.486;7.562;2022-12-18T11:51:58;101116.91;;;2.01;100.00
31761;BME280;18335;51.486;7.562;2022-12-18T11:54:26;101109.91;;;1.99;100.00
31761;BME280;18335;51.486;7.562;2022-12-18T11:56:56;101105.94;;;1.90;100.00
31761;BME280;18335;51.486;7.562;2022-12-18T11:59:32;101093.53;;;1.88;100.00
31761;BME280;18335;51.486;7.562;2022-12-18T12:02:12;101088.53;;;1.96;100.00
31761;BME280;18335;51.486;7.562;2022-12-18T12:04:53;101082.06;;;2.14;100.00
31761;BME280;18335;51.486;7.562;2022-12-18T12:07:33;101081.75;;;2.04;100.00
31761;BME280;18335;51.486;7.562;2022-12-18T12:10:10;101080.66;;;2.22;100.00
31761;BME280;18335;51.486;7.562;2022-12-18T12:12:55;101077.19;;;2.20;100.00
31761;BME280;18335;51.486;7.562;2022-12-18T12:15:34;101079.19;;;2.17;100.00
31761;BME280;18335;51.486;7.562;2022-12-18T12:18:12;101080.66;;;2.22;100.00
31761;BME280;18335;51.486;7.562;2022-12-18T12:20:55;101062.75;;;2.21;100.00
31761;BME280;18335;51.486;7.562;2022-12-18T12:23:30;101070.09;;;2.34;100.00
31761;BME280;18335;51.486;7.562;2022-12-18T12:26:04;101073.63;;;2.20;100.00
31761;BME280;18335;51.486;7.562;2022-12-18T12:29:00;101069.69;;;2.26;100.00
31761;BME280;18335;51.486;7.562;2022-12-18T12:31:42;101062.75;;;2.21;100.00
31761;BME280;18335;51.486;7.562;2022-12-18T12:34:17;101065.22;;;2.10;100.00
31761;BME280;18335;51.486;7.562;2022-12-18T12:36:57;101052.78;;;2.23;100.00
31761;BME280;18335;51.486;7.562;2022-12-18T12:39:31;101056.13;;;2.27;100.00
31761;BME280;18335;51.486;7.562;2022-12-18T12:41:59;101043.28;;;2.32;100.00
31761;BME280;18335;51.486;7.562;2022-12-18T12:44:48;101039.41;;;2.36;100.00
31761;BME280;18335;51.486;7.562;2022-12-18T12:47:20;101045.09;;;2.32;100.00
31761;BME280;18335;51.486;7.562;2022-12-18T12:49:49;101039.13;;;2.27;100.00
31761;BME280;18335;51.486;7.562;2022-12-18T12:52:25;101030.38;;;2.37;100.00
31761;BME280;18335;51.486;7.562;2022-12-18T12:54:54;101018.84;;;2.49;100.00
31761;BME280;18335;51.486;7.562;2022-12-18T12:57:24;101019.03;;;2.46;100.00
31761;BME280;18335;51.486;7.562;2022-12-18T13:00:00;101018.53;;;2.26;100.00